Terminal Aerodrome Forecast
Issued by NWS

Home | Current Version | Previous Version | Text Only | Print | Product List | Glossary On
Versions: 1 2 3 4 5 6 7 8 9 10 11 12 13 14 15 16 17 18 19 20
000
FTUS43 KGRR 261129
TAFJXN
TAF
KJXN 261129Z 2612/2712 32008KT P6SM OVC023
     FM261800 VRB03KT P6SM BKN070
     FM270000 00000KT P6SM VCSH BKN100
     FM270200 12004KT 4SM -TSRA BR OVC040CB
     FM270400 10004KT 4SM -SHRA BR VCTS OVC015CB
     FM270600 VRB06KT 2SM -DZ BR OVC003
     FM270800 35004KT 4SM BR OVC007=

USA.gov is the U.S. government's official web portal to all federal, state and local government web resources and services.